createdAt,value
2022-08-02T00:00:57.643Z,1015.77
2022-08-02T00:01:57.642Z,1015.78
2022-08-02T00:02:57.553Z,1015.80
2022-08-02T00:03:57.505Z,1015.76
2022-08-02T00:04:57.463Z,1015.80
2022-08-02T00:05:57.417Z,1015.78
2022-08-02T00:06:57.408Z,1015.79
2022-08-02T00:07:57.325Z,1015.78
2022-08-02T00:08:57.295Z,1015.81
2022-08-02T00:09:57.234Z,1015.79
2022-08-02T00:10:57.214Z,1015.80
2022-08-02T00:11:57.163Z,1015.81
2022-08-02T00:12:57.121Z,1015.81
2022-08-02T00:13:57.078Z,1015.79
2022-08-02T00:14:57.033Z,1015.76
2022-08-02T00:15:56.964Z,1015.79
2022-08-02T00:16:56.919Z,1015.80
2022-08-02T00:17:56.883Z,1015.79
2022-08-02T00:18:56.838Z,1015.76
2022-08-02T00:19:56.783Z,1015.79
2022-08-02T00:20:56.741Z,1015.77
2022-08-02T00:21:56.701Z,1015.77
2022-08-02T00:22:56.659Z,1015.76
2022-08-02T00:24:27.874Z,1015.76
2022-08-02T00:24:56.560Z,1015.75
2022-08-02T00:25:56.513Z,1015.77
2022-08-02T00:26:56.467Z,1015.76
2022-08-02T00:27:56.422Z,1015.71
2022-08-02T00:28:56.381Z,1015.73
2022-08-02T00:29:56.333Z,1015.73
2022-08-02T00:30:56.317Z,1015.74
2022-08-02T00:31:56.242Z,1015.71
2022-08-02T00:32:56.199Z,1015.71
2022-08-02T00:34:27.175Z,1015.73
2022-08-02T00:34:56.114Z,1015.71
2022-08-02T00:35:56.060Z,1015.68
2022-08-02T00:36:56.019Z,1015.64
2022-08-02T00:37:55.972Z,1015.64
2022-08-02T00:38:55.928Z,1015.66
2022-08-02T00:39:55.881Z,1015.64
2022-08-02T00:40:58.146Z,1015.66
2022-08-02T00:41:55.793Z,1015.65
2022-08-02T00:42:55.749Z,1015.68
2022-08-02T00:43:55.699Z,1015.70
2022-08-02T00:44:55.660Z,1015.65
2022-08-02T00:46:02.278Z,1015.66
2022-08-02T00:46:55.565Z,1015.60
2022-08-02T00:47:55.518Z,1015.64
2022-08-02T00:48:55.521Z,1015.63
2022-08-02T00:49:55.428Z,1015.61
2022-08-02T00:50:55.384Z,1015.62
2022-08-02T00:51:55.338Z,1015.54
2022-08-02T00:52:55.293Z,1015.64
2022-08-02T00:53:55.246Z,1015.66
2022-08-02T00:54:55.203Z,1015.61
2022-08-02T00:55:55.155Z,1015.62
2022-08-02T00:56:55.114Z,1015.63
2022-08-02T00:57:55.068Z,1015.67
2022-08-02T00:59:54.977Z,1015.68
2022-08-02T01:00:54.933Z,1015.67
2022-08-02T01:01:56.876Z,1015.72
2022-08-02T01:02:54.840Z,1015.70
2022-08-02T01:03:54.795Z,1015.73
2022-08-02T01:04:54.752Z,1015.68
2022-08-02T01:06:10.205Z,1015.74
2022-08-02T01:06:54.659Z,1015.72
2022-08-02T01:07:54.614Z,1015.74
2022-08-02T01:08:54.568Z,1015.70
2022-08-02T01:09:54.530Z,1015.68
2022-08-02T01:10:54.478Z,1015.70
2022-08-02T01:11:54.434Z,1015.67
2022-08-02T01:12:54.389Z,1015.65
2022-08-02T01:13:54.347Z,1015.66
2022-08-02T01:14:54.295Z,1015.63
2022-08-02T01:15:54.254Z,1015.64
2022-08-02T01:16:54.205Z,1015.58
2022-08-02T01:17:54.163Z,1015.59
2022-08-02T01:18:54.115Z,1015.60
2022-08-02T01:19:54.075Z,1015.53
2022-08-02T01:20:54.026Z,1015.53
2022-08-02T01:21:53.983Z,1015.57
2022-08-02T01:23:02.522Z,1015.52
2022-08-02T01:23:53.890Z,1015.55
2022-08-02T01:24:53.844Z,1015.58
2022-08-02T01:25:53.800Z,1015.62
2022-08-02T01:26:53.754Z,1015.62
2022-08-02T01:27:53.708Z,1015.59
2022-08-02T01:28:53.665Z,1015.62
2022-08-02T01:29:53.619Z,1015.59
2022-08-02T01:30:53.573Z,1015.60
2022-08-02T01:31:53.528Z,1015.56
2022-08-02T01:32:53.486Z,1015.53
2022-08-02T01:33:53.438Z,1015.53
2022-08-02T01:34:53.393Z,1015.47
2022-08-02T01:35:53.348Z,1015.49
2022-08-02T01:36:53.303Z,1015.47
2022-08-02T01:37:53.257Z,1015.49
2022-08-02T01:38:53.212Z,1015.46
2022-08-02T01:39:53.167Z,1015.46
2022-08-02T01:40:53.125Z,1015.44
2022-08-02T01:41:57.381Z,1015.40
2022-08-02T01:42:53.030Z,1015.40
2022-08-02T01:43:52.983Z,1015.37
2022-08-02T01:44:52.943Z,1015.33
2022-08-02T01:45:52.897Z,1015.36
2022-08-02T01:46:52.849Z,1015.34
2022-08-02T01:47:52.802Z,1015.36
2022-08-02T01:48:52.861Z,1015.36
2022-08-02T01:49:52.711Z,1015.34
2022-08-02T01:50:52.669Z,1015.34
2022-08-02T01:51:52.621Z,1015.33
2022-08-02T01:52:53.161Z,1015.35
2022-08-02T01:53:52.532Z,1015.36
2022-08-02T01:54:52.487Z,1015.38
2022-08-02T01:55:57.071Z,1015.39
2022-08-02T01:56:52.397Z,1015.41
2022-08-02T01:57:52.350Z,1015.39
2022-08-02T01:58:52.306Z,1015.41
2022-08-02T01:59:52.259Z,1015.43
2022-08-02T02:00:52.261Z,1015.38
2022-08-02T02:01:52.252Z,1015.40
2022-08-02T02:02:52.124Z,1015.38
2022-08-02T02:03:52.077Z,1015.38
2022-08-02T02:04:52.034Z,1015.33
2022-08-02T02:05:51.987Z,1015.36
2022-08-02T02:06:51.943Z,1015.33
2022-08-02T02:07:51.896Z,1015.34
2022-08-02T02:08:51.856Z,1015.34
2022-08-02T02:09:51.810Z,1015.33
2022-08-02T02:10:51.760Z,1015.34
2022-08-02T02:12:11.834Z,1015.31
2022-08-02T02:12:51.671Z,1015.29
2022-08-02T02:13:51.625Z,1015.29
2022-08-02T02:14:52.291Z,1015.31
2022-08-02T02:15:51.533Z,1015.33
2022-08-02T02:16:51.493Z,1015.30
2022-08-02T02:18:10.976Z,1015.34
2022-08-02T02:18:51.398Z,1015.34
2022-08-02T02:19:51.354Z,1015.28
2022-08-02T02:20:51.307Z,1015.31
2022-08-02T02:21:51.261Z,1015.29
2022-08-02T02:22:51.229Z,1015.30
2022-08-02T02:23:51.172Z,1015.26
2022-08-02T02:24:51.127Z,1015.25
2022-08-02T02:25:51.079Z,1015.26
2022-08-02T02:26:52.396Z,1015.30
2022-08-02T02:27:50.990Z,1015.27
2022-08-02T02:28:50.947Z,1015.25
2022-08-02T02:29:50.898Z,1015.27
2022-08-02T02:30:50.854Z,1015.26
2022-08-02T02:31:50.807Z,1015.22
2022-08-02T02:32:50.767Z,1015.24
2022-08-02T02:33:50.718Z,1015.24
2022-08-02T02:34:50.673Z,1015.22
2022-08-02T02:35:50.625Z,1015.26
2022-08-02T02:36:50.581Z,1015.25
2022-08-02T02:37:50.536Z,1015.24
2022-08-02T02:38:50.492Z,1015.23
2022-08-02T02:39:50.443Z,1015.21
2022-08-02T02:40:50.403Z,1015.19
2022-08-02T02:41:50.356Z,1015.21
2022-08-02T02:42:50.308Z,1015.17
2022-08-02T02:43:50.262Z,1015.16
2022-08-02T02:44:50.219Z,1015.14
2022-08-02T02:45:50.172Z,1015.08
2022-08-02T02:46:50.126Z,1015.08
2022-08-02T02:47:50.079Z,1015.08
2022-08-02T02:48:50.099Z,1015.08
2022-08-02T02:49:49.989Z,1015.07
2022-08-02T02:50:49.945Z,1015.05
2022-08-02T02:51:49.897Z,1015.00
2022-08-02T02:52:49.854Z,1014.97
2022-08-02T02:54:30.784Z,1014.97
2022-08-02T02:54:49.762Z,1014.95
2022-08-02T02:56:02.191Z,1014.92
2022-08-02T02:56:49.670Z,1014.92
2022-08-02T02:57:49.625Z,1014.87
2022-08-02T02:58:49.580Z,1014.91
2022-08-02T02:59:50.056Z,1014.87
2022-08-02T03:00:49.516Z,1014.89
2022-08-02T03:01:55.760Z,1014.91
2022-08-02T03:02:49.399Z,1014.91
2022-08-02T03:03:49.350Z,1014.86
2022-08-02T03:04:55.940Z,1014.83
2022-08-02T03:05:49.260Z,1014.85
2022-08-02T03:06:49.214Z,1014.85
2022-08-02T03:07:49.168Z,1014.90
2022-08-02T03:08:49.124Z,1014.86
2022-08-02T03:09:54.181Z,1014.92
2022-08-02T03:10:49.032Z,1014.91
2022-08-02T03:11:48.987Z,1014.90
2022-08-02T03:12:48.944Z,1014.88
2022-08-02T03:13:48.898Z,1014.91
2022-08-02T03:14:49.372Z,1014.88
2022-08-02T03:15:48.804Z,1014.90
2022-08-02T03:16:48.761Z,1014.90
2022-08-02T03:17:48.713Z,1014.87
2022-08-02T03:18:48.667Z,1014.91
2022-08-02T03:19:48.622Z,1014.91
2022-08-02T03:20:48.577Z,1014.93
2022-08-02T03:21:48.531Z,1014.90
2022-08-02T03:22:48.484Z,1014.94
2022-08-02T03:23:48.437Z,1014.97
2022-08-02T03:24:48.394Z,1014.95
2022-08-02T03:25:48.348Z,1014.94
2022-08-02T03:26:48.304Z,1014.93
2022-08-02T03:27:48.258Z,1014.98
2022-08-02T03:28:48.213Z,1014.97
2022-08-02T03:29:48.166Z,1014.95
2022-08-02T03:30:48.120Z,1014.92
2022-08-02T03:31:48.073Z,1014.87
2022-08-02T03:32:48.037Z,1014.84
2022-08-02T03:33:47.985Z,1014.79
2022-08-02T03:34:47.938Z,1014.78
2022-08-02T03:35:47.892Z,1014.76
2022-08-02T03:37:47.802Z,1014.78
2022-08-02T03:39:52.685Z,1014.77
2022-08-02T03:40:47.665Z,1014.77
2022-08-02T03:41:47.620Z,1014.77
2022-08-02T03:42:47.572Z,1014.74
2022-08-02T03:43:47.528Z,1014.73
2022-08-02T03:44:47.485Z,1014.77
2022-08-02T03:47:14.233Z,1014.81
2022-08-02T03:48:31.804Z,1014.83
2022-08-02T03:49:14.185Z,1014.84
2022-08-02T03:50:14.092Z,1014.84
2022-08-02T03:51:14.051Z,1014.80
2022-08-02T03:52:14.294Z,1014.83
2022-08-02T03:53:20.039Z,1014.82
2022-08-02T03:54:13.913Z,1014.82
2022-08-02T03:55:13.867Z,1014.80
2022-08-02T03:56:13.821Z,1014.82
2022-08-02T03:57:13.777Z,1014.84
2022-08-02T03:58:13.728Z,1014.85
2022-08-02T03:59:13.685Z,1014.86
2022-08-02T04:00:13.638Z,1014.91
2022-08-02T04:01:13.642Z,1014.90
2022-08-02T04:02:13.923Z,1014.87
2022-08-02T04:03:13.510Z,1014.89
2022-08-02T04:04:13.460Z,1014.87
2022-08-02T04:05:13.408Z,1014.84
2022-08-02T04:06:13.363Z,1014.81
2022-08-02T04:07:13.318Z,1014.79
2022-08-02T04:08:35.874Z,1014.80
2022-08-02T04:09:13.227Z,1014.79
2022-08-02T04:10:13.182Z,1014.72
2022-08-02T04:11:13.143Z,1014.78
2022-08-02T04:12:13.428Z,1014.77
2022-08-02T04:13:13.048Z,1014.79
2022-08-02T04:14:12.998Z,1014.80
2022-08-02T04:15:12.954Z,1014.76
2022-08-02T04:16:12.905Z,1014.80
2022-08-02T04:17:12.861Z,1014.82
2022-08-02T04:18:12.816Z,1014.85
2022-08-02T04:19:14.911Z,1014.89
2022-08-02T04:20:12.722Z,1014.93
2022-08-02T04:21:12.677Z,1014.95
2022-08-02T04:22:13.000Z,1014.94
2022-08-02T04:23:12.611Z,1014.94
2022-08-02T04:24:12.539Z,1014.95
2022-08-02T04:25:17.190Z,1014.94
2022-08-02T04:26:12.450Z,1014.98
2022-08-02T04:27:48.870Z,1014.92
2022-08-02T04:28:17.613Z,1014.98
2022-08-02T04:29:12.313Z,1014.95
2022-08-02T04:30:12.266Z,1014.97
2022-08-02T04:31:12.220Z,1014.93
2022-08-02T04:32:12.484Z,1014.95
2022-08-02T04:33:12.130Z,1014.95
2022-08-02T04:34:15.066Z,1014.91
2022-08-02T04:35:19.080Z,1014.93
2022-08-02T04:36:11.994Z,1014.89
2022-08-02T04:37:11.946Z,1014.94
2022-08-02T04:38:11.903Z,1014.88
2022-08-02T04:39:11.856Z,1014.90
2022-08-02T04:40:11.808Z,1014.89
2022-08-02T04:41:11.766Z,1014.93
2022-08-02T04:42:11.933Z,1014.94
2022-08-02T04:43:11.672Z,1014.93
2022-08-02T04:44:11.653Z,1014.94
2022-08-02T04:45:11.580Z,1014.91
2022-08-02T04:46:11.535Z,1014.89
2022-08-02T04:47:11.489Z,1014.92
2022-08-02T04:48:11.445Z,1014.92
2022-08-02T04:49:11.495Z,1014.92
2022-08-02T04:50:11.350Z,1014.98
2022-08-02T04:51:11.307Z,1014.95
2022-08-02T04:52:11.467Z,1014.95
2022-08-02T04:53:11.214Z,1014.96
2022-08-02T04:54:11.181Z,1015.00
2022-08-02T04:55:11.123Z,1015.00
2022-08-02T04:56:11.077Z,1015.07
2022-08-02T04:58:37.442Z,1015.11
2022-08-02T04:59:10.941Z,1015.12
2022-08-02T05:00:10.895Z,1015.12
2022-08-02T05:01:10.920Z,1015.11
2022-08-02T05:02:11.056Z,1015.07
2022-08-02T05:03:10.760Z,1015.04
2022-08-02T05:04:10.713Z,1015.06
2022-08-02T05:05:10.674Z,1015.06
2022-08-02T05:06:19.490Z,1015.05
2022-08-02T05:07:10.575Z,1015.03
2022-08-02T05:08:10.531Z,1015.03
2022-08-02T05:09:10.487Z,1015.01
2022-08-02T05:10:10.441Z,1015.01
2022-08-02T05:11:10.393Z,1014.99
2022-08-02T05:12:10.692Z,1014.98
2022-08-02T05:13:10.301Z,1014.96
2022-08-02T05:14:10.258Z,1014.95
2022-08-02T05:15:12.588Z,1014.92
2022-08-02T05:16:10.164Z,1014.94
2022-08-02T05:17:10.119Z,1014.95
2022-08-02T05:18:10.074Z,1014.93
2022-08-02T05:19:10.027Z,1014.98
2022-08-02T05:20:10.010Z,1014.99
2022-08-02T05:21:09.939Z,1014.97
2022-08-02T05:22:10.149Z,1015.02
2022-08-02T05:23:09.845Z,1014.98
2022-08-02T05:24:09.800Z,1015.03
2022-08-02T05:25:09.754Z,1015.04
2022-08-02T05:26:09.710Z,1015.03
2022-08-02T05:27:16.521Z,1015.02
2022-08-02T05:28:11.720Z,1015.04
2022-08-02T05:29:09.579Z,1015.06
2022-08-02T05:30:09.530Z,1015.05
2022-08-02T05:31:12.525Z,1015.02
2022-08-02T05:32:09.725Z,1015.05
2022-08-02T05:33:09.390Z,1015.06
2022-08-02T05:34:11.988Z,1015.07
2022-08-02T05:35:09.299Z,1015.05
2022-08-02T05:36:09.463Z,1015.01
2022-08-02T05:37:10.039Z,1015.04
2022-08-02T05:38:10.123Z,1015.10
2022-08-02T05:39:10.789Z,1015.02
2022-08-02T05:40:12.887Z,1015.05
2022-08-02T05:41:09.028Z,1015.06
2022-08-02T05:42:09.372Z,1015.05
2022-08-02T05:43:08.938Z,1015.03
2022-08-02T05:44:08.892Z,1015.02
2022-08-02T05:45:08.846Z,1015.00
2022-08-02T05:46:08.803Z,1014.97
2022-08-02T05:47:08.756Z,1014.96
2022-08-02T05:48:08.712Z,1014.93
2022-08-02T05:49:08.706Z,1014.98
2022-08-02T05:50:08.624Z,1015.00
2022-08-02T05:51:08.578Z,1014.99
2022-08-02T05:52:08.932Z,1015.01
2022-08-02T05:53:08.484Z,1014.99
2022-08-02T05:54:08.441Z,1015.00
2022-08-02T05:55:09.733Z,1015.00
2022-08-02T05:56:08.724Z,1014.99
2022-08-02T05:57:08.307Z,1014.95
2022-08-02T05:58:08.269Z,1014.91
2022-08-02T05:59:08.218Z,1014.94
2022-08-02T06:00:08.171Z,1014.91
2022-08-02T06:01:08.127Z,1014.91
2022-08-02T06:02:08.206Z,1014.89
2022-08-02T06:03:08.036Z,1014.82
2022-08-02T06:04:07.995Z,1014.82
2022-08-02T06:05:07.947Z,1014.85
2022-08-02T06:06:07.901Z,1014.89
2022-08-02T06:07:07.856Z,1014.87
2022-08-02T06:08:07.815Z,1014.91
2022-08-02T06:09:07.764Z,1014.86
2022-08-02T06:10:07.723Z,1014.87
2022-08-02T06:11:07.899Z,1014.81
2022-08-02T06:12:07.682Z,1014.83
2022-08-02T06:13:07.590Z,1014.89
2022-08-02T06:14:07.544Z,1014.83
2022-08-02T06:15:07.495Z,1014.88
2022-08-02T06:16:07.497Z,1014.91
2022-08-02T06:17:07.475Z,1014.90
2022-08-02T06:18:07.396Z,1014.95
2022-08-02T06:19:07.522Z,1014.89
2022-08-02T06:20:07.277Z,1014.91
2022-08-02T06:22:31.550Z,1014.87
2022-08-02T06:22:41.895Z,1014.85
2022-08-02T06:23:10.752Z,1014.87
2022-08-02T06:24:07.096Z,1014.83
2022-08-02T06:25:47.884Z,1014.81
2022-08-02T06:26:07.008Z,1014.80
2022-08-02T06:27:07.020Z,1014.82
2022-08-02T06:28:10.491Z,1014.84
2022-08-02T06:29:06.875Z,1014.89
2022-08-02T06:30:06.832Z,1014.86
2022-08-02T06:31:06.815Z,1014.89
2022-08-02T06:32:06.758Z,1014.84
2022-08-02T06:33:06.715Z,1014.85
2022-08-02T06:34:06.669Z,1014.89
2022-08-02T06:35:06.612Z,1014.86
2022-08-02T06:36:06.563Z,1014.85
2022-08-02T06:37:06.517Z,1014.86
2022-08-02T06:38:06.475Z,1014.85
2022-08-02T06:39:06.432Z,1014.83
2022-08-02T06:40:06.387Z,1014.87
2022-08-02T06:41:06.340Z,1014.80
2022-08-02T06:42:06.300Z,1014.82
2022-08-02T06:43:06.253Z,1014.85
2022-08-02T06:44:33.834Z,1014.87
2022-08-02T06:45:06.165Z,1014.85
2022-08-02T06:47:09.230Z,1014.85
2022-08-02T06:47:10.873Z,1014.83
2022-08-02T06:48:06.035Z,1014.86
2022-08-02T06:49:06.036Z,1014.83
2022-08-02T06:50:06.094Z,1014.85
2022-08-02T06:51:05.901Z,1014.91
2022-08-02T06:52:05.858Z,1014.92
2022-08-02T06:53:05.814Z,1014.88
2022-08-02T06:54:05.770Z,1014.85
2022-08-02T06:55:05.726Z,1014.83
2022-08-02T06:56:07.193Z,1014.79
2022-08-02T06:57:05.639Z,1014.81
2022-08-02T06:58:05.597Z,1014.82
2022-08-02T06:59:06.194Z,1014.80
2022-08-02T07:00:05.514Z,1014.87
2022-08-02T07:01:05.510Z,1014.86
2022-08-02T07:02:05.470Z,1014.84
2022-08-02T07:03:05.384Z,1014.89
2022-08-02T07:04:05.335Z,1014.85
2022-08-02T07:05:05.290Z,1014.86
2022-08-02T07:06:05.247Z,1014.81
2022-08-02T07:07:05.429Z,1014.85
2022-08-02T07:08:05.162Z,1014.87
2022-08-02T07:09:21.927Z,1014.87
2022-08-02T07:10:05.071Z,1014.86
2022-08-02T07:11:05.028Z,1014.87
2022-08-02T07:12:04.986Z,1014.86
2022-08-02T07:13:04.957Z,1014.83
2022-08-02T07:14:04.898Z,1014.82
2022-08-02T07:15:04.853Z,1014.89
2022-08-02T07:16:04.812Z,1014.87
2022-08-02T07:17:04.769Z,1014.88
2022-08-02T07:18:04.728Z,1014.89
2022-08-02T07:19:04.679Z,1014.91
2022-08-02T07:20:04.638Z,1014.89
2022-08-02T07:21:04.593Z,1014.88
2022-08-02T07:22:04.553Z,1014.88
2022-08-02T07:23:04.505Z,1014.86
2022-08-02T07:24:04.467Z,1014.84
2022-08-02T07:25:04.426Z,1014.88
2022-08-02T07:26:05.881Z,1014.87
2022-08-02T07:27:12.701Z,1014.91
2022-08-02T07:28:04.291Z,1014.94
2022-08-02T07:29:04.247Z,1014.87
2022-08-02T07:30:04.207Z,1014.90
2022-08-02T07:31:04.161Z,1014.85
2022-08-02T07:32:04.118Z,1014.84
2022-08-02T07:33:04.075Z,1014.87
2022-08-02T07:34:04.033Z,1014.82
2022-08-02T07:35:07.050Z,1014.85
2022-08-02T07:36:04.805Z,1014.88
2022-08-02T07:37:03.904Z,1014.84
2022-08-02T07:38:03.860Z,1014.85
2022-08-02T07:39:03.819Z,1014.80
2022-08-02T07:40:07.546Z,1014.86
2022-08-02T07:41:03.730Z,1014.84
2022-08-02T07:42:03.691Z,1014.81
2022-08-02T07:43:04.415Z,1014.85
2022-08-02T07:44:03.602Z,1014.85
2022-08-02T07:45:03.559Z,1014.83
2022-08-02T07:46:03.519Z,1014.84
2022-08-02T07:47:03.477Z,1014.86
2022-08-02T07:48:03.437Z,1014.85
2022-08-02T07:49:03.520Z,1014.82
2022-08-02T07:50:03.350Z,1014.84
2022-08-02T07:51:03.303Z,1014.85
2022-08-02T07:52:03.261Z,1014.82
2022-08-02T07:53:03.217Z,1014.79
2022-08-02T07:54:04.787Z,1014.79
2022-08-02T07:55:03.134Z,1014.76
2022-08-02T07:56:03.091Z,1014.70
2022-08-02T07:57:03.047Z,1014.74
2022-08-02T07:58:03.007Z,1014.72
2022-08-02T07:59:02.962Z,1014.70
2022-08-02T08:00:02.920Z,1014.72
2022-08-02T08:01:02.933Z,1014.73
2022-08-02T08:02:02.885Z,1014.66
2022-08-02T08:03:02.792Z,1014.70
2022-08-02T08:04:02.750Z,1014.72
2022-08-02T08:05:02.708Z,1014.72
2022-08-02T08:06:02.665Z,1014.67
2022-08-02T08:07:02.622Z,1014.70
2022-08-02T08:08:02.584Z,1014.70
2022-08-02T08:09:02.538Z,1014.69
2022-08-02T08:10:02.499Z,1014.70
2022-08-02T08:11:02.456Z,1014.67
2022-08-02T08:12:02.409Z,1014.63
2022-08-02T08:13:02.373Z,1014.63
2022-08-02T08:14:02.329Z,1014.68
2022-08-02T08:15:02.286Z,1014.65
2022-08-02T08:16:02.240Z,1014.67
2022-08-02T08:17:02.200Z,1014.65
2022-08-02T08:18:02.158Z,1014.63
2022-08-02T08:19:02.117Z,1014.68
2022-08-02T08:20:02.072Z,1014.65
2022-08-02T08:21:02.031Z,1014.62
2022-08-02T08:22:01.988Z,1014.62
2022-08-02T08:23:01.955Z,1014.57
2022-08-02T08:24:01.903Z,1014.56
2022-08-02T08:25:01.863Z,1014.59
2022-08-02T08:26:01.821Z,1014.60
2022-08-02T08:27:01.782Z,1014.60
2022-08-02T08:28:01.739Z,1014.56
2022-08-02T08:29:01.698Z,1014.54
2022-08-02T08:30:01.653Z,1014.58
2022-08-02T08:31:01.612Z,1014.57
2022-08-02T08:32:01.570Z,1014.59
2022-08-02T08:33:01.531Z,1014.52
2022-08-02T08:34:01.488Z,1014.50
2022-08-02T08:35:01.443Z,1014.53
2022-08-02T08:36:02.750Z,1014.50
2022-08-02T08:37:01.363Z,1014.49
2022-08-02T08:38:05.593Z,1014.50
2022-08-02T08:39:01.277Z,1014.50
2022-08-02T08:40:01.238Z,1014.55
2022-08-02T08:41:01.197Z,1014.54
2022-08-02T08:42:01.152Z,1014.53
2022-08-02T08:43:01.111Z,1014.55
2022-08-02T08:44:01.066Z,1014.56
2022-08-02T08:45:01.197Z,1014.57
2022-08-02T08:46:00.983Z,1014.56
2022-08-02T08:47:00.951Z,1014.61
2022-08-02T08:48:00.900Z,1014.65
2022-08-02T08:49:00.928Z,1014.62
2022-08-02T08:50:00.818Z,1014.64
2022-08-02T08:51:00.782Z,1014.59
2022-08-02T08:52:00.733Z,1014.61
2022-08-02T08:53:00.697Z,1014.62
2022-08-02T08:54:00.652Z,1014.64
2022-08-02T08:55:00.611Z,1014.60
2022-08-02T08:56:00.569Z,1014.61
2022-08-02T08:57:00.531Z,1014.55
2022-08-02T08:58:00.485Z,1014.63
2022-08-02T08:59:00.448Z,1014.59
2022-08-02T09:00:00.403Z,1014.66
2022-08-02T09:01:00.503Z,1014.61
2022-08-02T09:02:00.365Z,1014.62
2022-08-02T09:03:00.281Z,1014.61
2022-08-02T09:04:00.237Z,1014.59
2022-08-02T09:05:00.202Z,1014.56
2022-08-02T09:06:00.155Z,1014.57
2022-08-02T09:07:00.114Z,1014.49
2022-08-02T09:08:00.071Z,1014.50
2022-08-02T09:09:00.035Z,1014.48
2022-08-02T09:09:59.993Z,1014.45
2022-08-02T09:10:59.952Z,1014.46
2022-08-02T09:11:59.909Z,1014.46
2022-08-02T09:12:59.869Z,1014.47
2022-08-02T09:13:59.829Z,1014.44
2022-08-02T09:14:59.789Z,1014.46
2022-08-02T09:16:00.856Z,1014.44
2022-08-02T09:16:59.704Z,1014.46
2022-08-02T09:17:59.666Z,1014.45
2022-08-02T09:18:59.622Z,1014.46
2022-08-02T09:19:59.583Z,1014.44
2022-08-02T09:20:59.540Z,1014.39
2022-08-02T09:21:59.498Z,1014.38
2022-08-02T09:22:59.461Z,1014.44
2022-08-02T09:23:59.417Z,1014.38
2022-08-02T09:24:59.378Z,1014.35
2022-08-02T09:26:00.872Z,1014.39
2022-08-02T09:26:59.295Z,1014.42
2022-08-02T09:27:59.251Z,1014.35
2022-08-02T09:28:59.217Z,1014.38
2022-08-02T09:30:12.035Z,1014.35
2022-08-02T09:30:59.133Z,1014.35
2022-08-02T09:31:59.096Z,1014.34
2022-08-02T09:32:59.050Z,1014.38
2022-08-02T09:33:59.021Z,1014.35
2022-08-02T09:34:58.972Z,1014.40
2022-08-02T09:36:06.076Z,1014.39
2022-08-02T09:36:58.889Z,1014.37
2022-08-02T09:37:58.847Z,1014.38
2022-08-02T09:38:58.807Z,1014.43
2022-08-02T09:39:59.594Z,1014.43
2022-08-02T09:40:58.727Z,1014.42
2022-08-02T09:41:58.684Z,1014.36
2022-08-02T09:42:58.645Z,1014.37
2022-08-02T09:44:04.659Z,1014.37
2022-08-02T09:44:58.564Z,1014.34
2022-08-02T09:45:58.522Z,1014.37
2022-08-02T09:46:58.487Z,1014.41
2022-08-02T09:47:58.439Z,1014.39
2022-08-02T09:48:58.490Z,1014.38
2022-08-02T09:49:58.360Z,1014.36
2022-08-02T09:50:58.324Z,1014.37
2022-08-02T09:51:58.277Z,1014.39
2022-08-02T09:52:58.240Z,1014.36
2022-08-02T09:54:07.961Z,1014.29
2022-08-02T09:54:58.160Z,1014.32
2022-08-02T09:55:58.116Z,1014.32
2022-08-02T09:56:58.078Z,1014.37
2022-08-02T09:57:58.038Z,1014.41
2022-08-02T09:58:58.008Z,1014.34
2022-08-02T09:59:57.954Z,1014.38
2022-08-02T10:00:57.956Z,1014.36
2022-08-02T10:01:58.845Z,1014.39
2022-08-02T10:02:57.837Z,1014.32
2022-08-02T10:03:57.797Z,1014.35
2022-08-02T10:04:57.754Z,1014.32
2022-08-02T10:06:02.101Z,1014.37
2022-08-02T10:06:57.679Z,1014.35
2022-08-02T10:07:57.631Z,1014.36
2022-08-02T10:08:57.596Z,1014.39
2022-08-02T10:09:57.555Z,1014.35
2022-08-02T10:10:57.514Z,1014.33
2022-08-02T10:11:57.473Z,1014.30
2022-08-02T10:12:57.433Z,1014.35
2022-08-02T10:13:57.399Z,1014.33
2022-08-02T10:14:57.360Z,1014.33
2022-08-02T10:15:57.311Z,1014.33
2022-08-02T10:16:57.273Z,1014.38
2022-08-02T10:17:57.231Z,1014.37
2022-08-02T10:18:57.204Z,1014.28
2022-08-02T10:20:00.508Z,1014.32
2022-08-02T10:20:57.112Z,1014.29
2022-08-02T10:21:57.073Z,1014.35
2022-08-02T10:22:57.033Z,1014.29
2022-08-02T10:23:56.990Z,1014.29
2022-08-02T10:24:56.952Z,1014.27
2022-08-02T10:25:56.912Z,1014.26
2022-08-02T10:26:56.873Z,1014.27
2022-08-02T10:28:05.074Z,1014.25
2022-08-02T10:28:56.792Z,1014.26
2022-08-02T10:29:56.751Z,1014.21
2022-08-02T10:30:56.713Z,1014.24
2022-08-02T10:31:56.713Z,1014.22
2022-08-02T10:32:56.634Z,1014.20
2022-08-02T10:33:56.592Z,1014.19
2022-08-02T10:34:56.557Z,1014.16
2022-08-02T10:36:07.416Z,1014.13
2022-08-02T10:36:56.480Z,1014.14
2022-08-02T10:37:56.435Z,1014.10
2022-08-02T10:38:56.398Z,1014.10
2022-08-02T10:39:56.358Z,1014.15
2022-08-02T10:40:56.521Z,1014.05
2022-08-02T10:41:56.282Z,1014.06
2022-08-02T10:42:56.242Z,1014.07
2022-08-02T10:43:56.201Z,1014.05
2022-08-02T10:44:56.164Z,1014.08
2022-08-02T10:45:56.125Z,1014.07
2022-08-02T10:46:56.090Z,1014.07
2022-08-02T10:47:56.051Z,1014.06
2022-08-02T10:48:56.062Z,1014.01
2022-08-02T10:49:56.020Z,1014.04
2022-08-02T10:50:55.948Z,1014.07
2022-08-02T10:51:55.906Z,1014.06
2022-08-02T10:52:55.861Z,1014.05
2022-08-02T10:53:55.849Z,1014.04
2022-08-02T10:54:56.379Z,1014.04
2022-08-02T10:55:55.781Z,1013.94
2022-08-02T10:56:55.717Z,1013.93
2022-08-02T10:57:55.679Z,1013.87
2022-08-02T10:58:55.638Z,1013.87
2022-08-02T10:59:55.607Z,1013.96
2022-08-02T11:00:55.604Z,1013.88
2022-08-02T11:01:55.512Z,1013.91
2022-08-02T11:02:55.508Z,1013.90
2022-08-02T11:03:55.449Z,1013.96
2022-08-02T11:04:55.405Z,1013.95
2022-08-02T11:05:55.361Z,1013.97
2022-08-02T11:06:55.349Z,1013.92
2022-08-02T11:07:55.311Z,1013.97
2022-08-02T11:08:55.259Z,1013.95
2022-08-02T11:09:55.242Z,1013.95
2022-08-02T11:10:55.187Z,1013.99
2022-08-02T11:11:55.155Z,1014.01
2022-08-02T11:12:55.137Z,1013.98
2022-08-02T11:13:55.081Z,1014.00
2022-08-02T11:14:55.221Z,1013.96
2022-08-02T11:15:55.034Z,1013.94
2022-08-02T11:16:54.950Z,1013.92
2022-08-02T11:17:54.936Z,1013.89
2022-08-02T11:18:54.873Z,1013.91
2022-08-02T11:19:54.836Z,1013.97
2022-08-02T11:20:54.925Z,1013.87
2022-08-02T11:21:54.821Z,1013.89
2022-08-02T11:22:54.742Z,1013.87
2022-08-02T11:23:54.682Z,1013.87
2022-08-02T11:24:54.678Z,1013.90
2022-08-02T11:26:03.508Z,1013.90
2022-08-02T11:26:54.616Z,1013.90
2022-08-02T11:27:54.579Z,1013.88
2022-08-02T11:28:54.544Z,1013.88
2022-08-02T11:29:54.533Z,1013.85
2022-08-02T11:30:54.435Z,1013.88
2022-08-02T11:31:54.389Z,1013.85
2022-08-02T11:32:54.389Z,1013.92
2022-08-02T11:33:54.863Z,1013.89
2022-08-02T11:34:54.314Z,1013.92
2022-08-02T11:35:54.276Z,1013.91
2022-08-02T11:36:54.228Z,1013.89
2022-08-02T11:37:54.168Z,1013.92
2022-08-02T11:38:54.172Z,1013.92
2022-08-02T11:39:54.091Z,1013.90
2022-08-02T11:40:57.400Z,1013.86
2022-08-02T11:41:54.057Z,1013.84
2022-08-02T11:42:54.321Z,1013.85
2022-08-02T11:43:53.963Z,1013.92
2022-08-02T11:44:54.111Z,1013.85
2022-08-02T11:45:53.867Z,1013.81
2022-08-02T11:46:53.826Z,1013.92
2022-08-02T11:47:54.311Z,1013.90
2022-08-02T11:48:53.859Z,1013.82
2022-08-02T11:49:53.725Z,1013.86
2022-08-02T11:50:53.885Z,1013.86
2022-08-02T11:51:55.133Z,1013.84
2022-08-02T11:52:53.603Z,1013.80
2022-08-02T11:54:54.154Z,1013.86
2022-08-02T11:55:53.493Z,1013.82
2022-08-02T11:56:53.453Z,1013.85
2022-08-02T11:58:01.750Z,1013.86
2022-08-02T11:58:53.380Z,1013.79
2022-08-02T11:59:53.341Z,1013.76
2022-08-02T12:00:53.311Z,1013.79
2022-08-02T12:01:53.268Z,1013.83
2022-08-02T12:02:53.291Z,1013.83
2022-08-02T12:03:53.192Z,1013.81
2022-08-02T12:04:53.156Z,1013.82
2022-08-02T12:06:05.470Z,1013.76
2022-08-02T12:06:53.081Z,1013.75
2022-08-02T12:07:53.040Z,1013.71
2022-08-02T12:08:54.531Z,1013.70
2022-08-02T12:09:52.964Z,1013.70
2022-08-02T12:10:52.936Z,1013.70
2022-08-02T12:11:52.892Z,1013.71